createdAt,value
2023-11-13T00:02:25.385Z,97206.34
2023-11-13T00:04:56.312Z,97211.89
2023-11-13T00:07:26.969Z,97211.40
2023-11-13T00:09:57.528Z,97209.61
2023-11-13T00:12:28.170Z,97211.39
2023-11-13T00:14:58.499Z,97211.42
2023-11-13T00:17:29.264Z,97214.60
2023-11-13T00:20:00.458Z,97219.30
2023-11-13T00:22:32.250Z,97222.63
2023-11-13T00:25:04.458Z,97226.41
2023-11-13T00:27:37.781Z,97227.29
2023-11-13T00:30:09.047Z,97227.27
2023-11-13T00:32:41.066Z,97227.58
2023-11-13T00:35:13.140Z,97225.09
2023-11-13T00:37:45.461Z,97227.63
2023-11-13T00:40:17.984Z,97230.30
2023-11-13T00:42:49.907Z,97230.90
2023-11-13T00:45:20.761Z,97238.52
2023-11-13T00:47:51.572Z,97238.94
2023-11-13T00:50:23.103Z,97242.10
2023-11-13T00:52:54.277Z,97240.91
2023-11-13T00:55:25.555Z,97234.79
2023-11-13T00:57:56.784Z,97235.40
2023-11-13T01:00:26.560Z,97237.39
2023-11-13T01:02:56.830Z,97237.34
2023-11-13T01:05:27.523Z,97239.89
2023-11-13T01:08:01.635Z,97237.16
2023-11-13T01:10:34.459Z,97237.34
2023-11-13T01:13:12.406Z,97237.18
2023-11-13T01:15:47.930Z,97236.70
2023-11-13T01:18:22.177Z,97231.73
2023-11-13T01:20:54.775Z,97230.17
2023-11-13T01:23:27.158Z,97229.09
2023-11-13T01:25:58.734Z,97231.07
2023-11-13T01:28:30.200Z,97231.01
2023-11-13T01:31:05.434Z,97232.58
2023-11-13T01:33:38.284Z,97234.34
2023-11-13T01:36:10.229Z,97227.06
2023-11-13T01:38:42.109Z,97219.20
2023-11-13T01:41:13.031Z,97224.53
2023-11-13T01:43:52.297Z,97234.14
2023-11-13T01:46:24.083Z,97242.19
2023-11-13T01:48:55.013Z,97250.88
2023-11-13T01:51:31.215Z,97249.47
2023-11-13T01:54:05.720Z,97250.23
2023-11-13T01:56:38.065Z,97248.02
2023-11-13T01:59:10.708Z,97254.60
2023-11-13T02:01:42.816Z,97256.52
2023-11-13T02:04:16.998Z,97253.64
2023-11-13T02:06:48.240Z,97250.79
2023-11-13T02:09:22.798Z,97255.89
2023-11-13T02:11:55.262Z,97256.40
2023-11-13T02:14:28.176Z,97259.15
2023-11-13T02:17:10.660Z,97259.47
2023-11-13T02:19:42.700Z,97267.65
2023-11-13T02:22:18.261Z,97266.70
2023-11-13T02:24:55.936Z,97263.68
2023-11-13T02:27:37.984Z,97266.16
2023-11-13T02:30:14.945Z,97264.73
2023-11-13T02:32:49.379Z,97271.13
2023-11-13T02:35:22.522Z,97269.10
2023-11-13T02:37:56.307Z,97269.92
2023-11-13T02:40:28.873Z,97273.52
2023-11-13T02:43:03.350Z,97273.51
2023-11-13T02:45:36.455Z,97267.16
2023-11-13T02:48:08.080Z,97264.10
2023-11-13T02:50:41.928Z,97258.80
2023-11-13T02:53:12.528Z,97257.98
2023-11-13T02:55:45.482Z,97256.92
2023-11-13T02:58:17.498Z,97256.96
2023-11-13T03:00:52.255Z,97253.06
2023-11-13T03:03:28.787Z,97255.20
2023-11-13T03:05:59.958Z,97254.57
2023-11-13T03:08:32.175Z,97250.48
2023-11-13T03:11:04.131Z,97251.38
2023-11-13T03:13:35.968Z,97248.91
2023-11-13T03:16:12.390Z,97250.35
2023-11-13T03:18:45.870Z,97251.12
2023-11-13T03:21:21.650Z,97251.90
2023-11-13T03:23:52.490Z,97253.52
2023-11-13T03:26:22.767Z,97253.09
2023-11-13T03:28:54.946Z,97258.65
2023-11-13T03:31:27.833Z,97262.80
2023-11-13T03:33:59.752Z,97268.71
2023-11-13T03:36:37.306Z,97271.06
2023-11-13T03:39:08.079Z,97272.77
2023-11-13T03:41:38.676Z,97278.52
2023-11-13T03:44:09.816Z,97280.77
2023-11-13T03:46:40.273Z,97281.23
2023-11-13T03:49:10.728Z,97283.91
2023-11-13T03:51:41.052Z,97276.64
2023-11-13T03:54:12.365Z,97277.55
2023-11-13T03:56:44.320Z,97277.27
2023-11-13T03:59:15.294Z,97282.62
2023-11-13T04:01:50.743Z,97283.23
2023-11-13T04:04:20.617Z,97296.34
2023-11-13T04:06:51.210Z,97302.11
2023-11-13T04:09:21.185Z,97310.10
2023-11-13T04:11:52.312Z,97314.16
2023-11-13T04:14:23.214Z,97317.49
2023-11-13T04:16:53.420Z,97326.06
2023-11-13T04:19:26.799Z,97329.66
2023-11-13T04:21:57.063Z,97330.66
2023-11-13T04:24:27.532Z,97329.87
2023-11-13T04:26:57.654Z,97338.02
2023-11-13T04:29:28.447Z,97341.84
2023-11-13T04:31:59.745Z,97344.81
2023-11-13T04:34:30.958Z,97356.45
2023-11-13T04:37:00.735Z,97364.16
2023-11-13T04:39:30.377Z,97366.56
2023-11-13T04:42:00.450Z,97366.60
2023-11-13T04:44:30.714Z,97366.81
2023-11-13T04:47:01.058Z,97374.04
2023-11-13T04:49:32.150Z,97374.29
2023-11-13T04:52:02.932Z,97374.85
2023-11-13T04:54:32.353Z,97380.42
2023-11-13T04:57:02.692Z,97381.89
2023-11-13T04:59:33.363Z,97372.30
2023-11-13T05:02:04.523Z,97363.46
2023-11-13T05:04:34.339Z,97358.55
2023-11-13T05:07:04.088Z,97347.12
2023-11-13T05:09:34.020Z,97342.08
2023-11-13T05:12:06.392Z,97343.21
2023-11-13T05:14:42.006Z,97344.65
2023-11-13T05:17:11.279Z,97338.67
2023-11-13T05:19:42.242Z,97340.81
2023-11-13T05:22:12.988Z,97333.23
2023-11-13T05:24:42.771Z,97335.58
2023-11-13T05:27:12.511Z,97338.98
2023-11-13T05:29:43.436Z,97339.06
2023-11-13T05:32:13.580Z,97339.23
2023-11-13T05:34:44.740Z,97341.46
2023-11-13T05:37:15.471Z,97346.88
2023-11-13T05:39:44.535Z,97352.11
2023-11-13T05:42:13.708Z,97355.13
2023-11-13T05:44:43.184Z,97351.50
2023-11-13T05:47:12.792Z,97351.83
2023-11-13T05:49:43.495Z,97353.48
2023-11-13T05:52:13.269Z,97355.14
2023-11-13T05:54:43.507Z,97354.34
2023-11-13T05:57:13.610Z,97353.40
2023-11-13T05:59:42.992Z,97353.63
2023-11-13T06:02:13.662Z,97356.36
2023-11-13T06:04:50.413Z,97359.23
2023-11-13T06:07:23.284Z,97356.54
2023-11-13T06:09:52.784Z,97357.14
2023-11-13T06:12:22.446Z,97357.54
2023-11-13T06:14:52.447Z,97363.80
2023-11-13T06:17:26.297Z,97360.10
2023-11-13T06:19:56.205Z,97359.41
2023-11-13T06:22:25.809Z,97355.04
2023-11-13T06:24:56.344Z,97353.55
2023-11-13T06:27:28.460Z,97351.88
2023-11-13T06:29:57.861Z,97351.95
2023-11-13T06:32:29.788Z,97359.88
2023-11-13T06:34:59.342Z,97362.76
2023-11-13T06:37:28.290Z,97359.29
2023-11-13T06:39:58.656Z,97358.23
2023-11-13T06:42:28.244Z,97360.45
2023-11-13T06:44:58.266Z,97359.07
2023-11-13T06:47:27.640Z,97352.34
2023-11-13T06:49:57.285Z,97354.67
2023-11-13T06:52:26.193Z,97359.43
2023-11-13T06:54:59.965Z,97364.34
2023-11-13T06:57:29.485Z,97363.46
2023-11-13T06:59:59.098Z,97355.73
2023-11-13T07:02:29.653Z,97355.16
2023-11-13T07:04:59.166Z,97357.59
2023-11-13T07:07:28.557Z,97358.22
2023-11-13T07:09:58.406Z,97359.05
2023-11-13T07:12:29.057Z,97359.98
2023-11-13T07:14:59.594Z,97356.17
2023-11-13T07:17:29.631Z,97357.89
2023-11-13T07:19:58.504Z,97358.42
2023-11-13T07:22:30.002Z,97360.27
2023-11-13T07:25:00.058Z,97363.96
2023-11-13T07:27:30.015Z,97367.57
2023-11-13T07:29:59.191Z,97365.38
2023-11-13T07:32:28.997Z,97365.39
2023-11-13T07:34:58.707Z,97366.27
2023-11-13T07:37:27.726Z,97367.45
2023-11-13T07:39:56.501Z,97364.15
2023-11-13T07:42:28.037Z,97365.73
2023-11-13T07:44:58.447Z,97363.33
2023-11-13T07:47:30.349Z,97361.82
2023-11-13T07:49:59.780Z,97366.89
2023-11-13T07:52:29.508Z,97369.04
2023-11-13T07:55:01.301Z,97372.75
2023-11-13T07:57:30.074Z,97374.91
2023-11-13T07:59:59.309Z,97369.92
2023-11-13T08:02:28.237Z,97370.81
2023-11-13T08:04:57.946Z,97373.17
2023-11-13T08:07:27.423Z,97372.46
2023-11-13T08:09:56.326Z,97374.19
2023-11-13T08:12:25.573Z,97375.23
2023-11-13T08:14:55.743Z,97376.59
2023-11-13T08:17:29.399Z,97370.17
2023-11-13T08:20:01.089Z,97368.51
2023-11-13T08:22:31.212Z,97369.35
2023-11-13T08:25:01.126Z,97373.64
2023-11-13T08:27:30.588Z,97376.29
2023-11-13T08:29:59.991Z,97379.45
2023-11-13T08:32:29.758Z,97377.45
2023-11-13T08:35:00.272Z,97376.52
2023-11-13T08:37:29.459Z,97375.89
2023-11-13T08:39:58.731Z,97374.55
2023-11-13T08:42:29.210Z,97373.91
2023-11-13T08:45:02.675Z,97372.96
2023-11-13T08:47:36.009Z,97365.16
2023-11-13T08:50:09.020Z,97360.25
2023-11-13T08:52:40.178Z,97358.01
2023-11-13T08:55:14.573Z,97362.11
2023-11-13T08:57:45.020Z,97364.63
2023-11-13T09:00:31.713Z,97365.88
2023-11-13T09:03:02.187Z,97360.41
2023-11-13T09:05:31.889Z,97362.58
2023-11-13T09:08:03.549Z,97358.73
2023-11-13T09:10:33.039Z,97362.45
2023-11-13T09:13:04.945Z,97362.48
2023-11-13T09:15:36.988Z,97358.56
2023-11-13T09:18:11.647Z,97355.69
2023-11-13T09:20:44.158Z,97353.42
2023-11-13T09:23:13.591Z,97348.31
2023-11-13T09:25:44.369Z,97350.18
2023-11-13T09:28:13.601Z,97353.76
2023-11-13T09:30:43.825Z,97350.70
2023-11-13T09:33:13.568Z,97352.10
2023-11-13T09:35:43.135Z,97353.25
2023-11-13T09:38:13.679Z,97340.20
2023-11-13T09:40:42.555Z,97333.33
2023-11-13T09:43:41.477Z,97328.40
2023-11-13T09:46:14.803Z,97330.13
2023-11-13T09:49:12.218Z,97327.11
2023-11-13T09:51:44.292Z,97322.61
2023-11-13T09:54:15.083Z,97323.06
2023-11-13T09:56:44.604Z,97315.95
2023-11-13T09:59:16.558Z,97309.84
2023-11-13T10:01:45.938Z,97305.77
2023-11-13T10:04:15.974Z,97298.64
2023-11-13T10:06:52.118Z,97294.77
2023-11-13T10:09:23.776Z,97285.77
2023-11-13T10:11:54.176Z,97276.77
2023-11-13T10:14:27.310Z,97268.85
2023-11-13T10:17:06.663Z,97261.23
2023-11-13T10:19:36.501Z,97252.59
2023-11-13T10:22:17.838Z,97253.23
2023-11-13T10:25:00.199Z,97248.48
2023-11-13T10:27:31.480Z,97242.55
2023-11-13T10:30:12.081Z,97237.30
2023-11-13T10:32:41.780Z,97229.88
2023-11-13T10:35:12.037Z,97221.01
2023-11-13T10:38:00.146Z,97214.89
2023-11-13T10:40:29.735Z,97214.21
2023-11-13T10:42:58.726Z,97210.65
2023-11-13T10:45:30.584Z,97212.40
2023-11-13T10:48:02.578Z,97207.27
2023-11-13T10:50:32.360Z,97202.14
2023-11-13T10:53:04.804Z,97204.63
2023-11-13T10:55:35.289Z,97201.06
2023-11-13T10:58:04.599Z,97191.89
2023-11-13T11:00:33.868Z,97183.39
2023-11-13T11:03:08.982Z,97179.34
2023-11-13T11:05:41.180Z,97171.89
2023-11-13T11:08:16.783Z,97167.20
2023-11-13T11:10:48.430Z,97170.78
2023-11-13T11:13:20.004Z,97173.54
2023-11-13T11:16:23.401Z,97165.48
2023-11-13T11:19:22.578Z,97162.96
2023-11-13T11:22:00.845Z,97162.38
2023-11-13T11:24:48.563Z,97164.84
2023-11-13T11:27:36.508Z,97165.55
2023-11-13T11:30:21.475Z,97164.83
2023-11-13T11:32:59.618Z,97164.16
2023-11-13T11:35:33.502Z,97161.92
2023-11-13T11:38:18.962Z,97160.83
2023-11-13T11:40:49.934Z,97169.43
2023-11-13T11:43:34.366Z,97175.91
2023-11-13T11:46:10.275Z,97182.09
2023-11-13T11:48:39.962Z,97180.39
2023-11-13T11:51:23.100Z,97184.60
2023-11-13T11:54:00.881Z,97181.96
2023-11-13T11:56:30.446Z,97177.77
2023-11-13T11:58:59.963Z,97171.63
2023-11-13T12:01:29.882Z,97178.09
2023-11-13T12:03:58.784Z,97180.80
2023-11-13T12:06:29.012Z,97180.38
2023-11-13T12:08:58.034Z,97171.79
2023-11-13T12:11:27.414Z,97167.95
2023-11-13T12:13:56.383Z,97171.63
2023-11-13T12:16:25.413Z,97168.27
2023-11-13T12:18:54.351Z,97165.99
2023-11-13T12:21:24.418Z,97164.44
2023-11-13T12:23:56.153Z,97163.34
2023-11-13T12:26:25.531Z,97153.08
2023-11-13T12:28:54.623Z,97145.63
2023-11-13T12:31:25.670Z,97140.39
2023-11-13T12:33:55.072Z,97131.92
2023-11-13T12:36:24.699Z,97128.64
2023-11-13T12:38:54.088Z,97125.23
2023-11-13T12:41:23.008Z,97126.84
2023-11-13T12:43:52.295Z,97127.75
2023-11-13T12:46:25.452Z,97116.10
2023-11-13T12:49:01.239Z,97109.33
2023-11-13T12:51:33.790Z,97103.44
2023-11-13T12:54:06.079Z,97104.95
2023-11-13T12:56:38.287Z,97102.64
2023-11-13T12:59:09.172Z,97103.30
2023-11-13T13:01:39.378Z,97096.20
2023-11-13T13:04:09.003Z,97094.39
2023-11-13T13:06:39.948Z,97095.48
2023-11-13T13:09:12.133Z,97101.36
2023-11-13T13:11:42.411Z,97104.35
2023-11-13T13:14:19.261Z,97104.57
2023-11-13T13:16:56.776Z,97104.77
2023-11-13T13:19:26.871Z,97105.38
2023-11-13T13:21:56.006Z,97100.71
2023-11-13T13:24:27.792Z,97092.17
2023-11-13T13:27:00.035Z,97088.63
2023-11-13T13:29:29.645Z,97083.31
2023-11-13T13:31:58.560Z,97084.65
2023-11-13T13:34:28.221Z,97089.49
2023-11-13T13:36:57.556Z,97089.63
2023-11-13T13:39:27.274Z,97099.55
2023-11-13T13:41:57.890Z,97102.34
2023-11-13T13:44:26.671Z,97106.70
2023-11-13T13:46:56.052Z,97109.03
2023-11-13T13:49:25.922Z,97103.20
2023-11-13T13:51:54.696Z,97104.64
2023-11-13T13:54:24.978Z,97101.88
2023-11-13T13:56:55.431Z,97107.94
2023-11-13T13:59:26.474Z,97110.12
2023-11-13T14:01:55.836Z,97114.70
2023-11-13T14:04:25.374Z,97116.94
2023-11-13T14:06:57.352Z,97118.36
2023-11-13T14:09:28.542Z,97116.98
2023-11-13T14:12:06.227Z,97111.52
2023-11-13T14:14:38.432Z,97115.56
2023-11-13T14:17:08.038Z,97121.63
2023-11-13T14:19:38.809Z,97110.33
2023-11-13T14:22:10.908Z,97115.88
2023-11-13T14:24:41.111Z,97113.77
2023-11-13T14:27:10.308Z,97115.22
2023-11-13T14:29:39.384Z,97118.49
2023-11-13T14:32:12.223Z,97115.42
2023-11-13T14:34:41.385Z,97111.32
2023-11-13T14:37:11.417Z,97107.91
2023-11-13T14:39:40.361Z,97102.13
2023-11-13T14:42:11.805Z,97099.63
2023-11-13T14:44:41.742Z,97105.07
2023-11-13T14:47:13.130Z,97111.50
2023-11-13T14:49:42.692Z,97113.38
2023-11-13T14:52:11.704Z,97119.88
2023-11-13T14:54:41.689Z,97115.87
2023-11-13T14:57:10.591Z,97118.10
2023-11-13T14:59:40.295Z,97116.75
2023-11-13T15:02:10.139Z,97109.16
2023-11-13T15:04:39.928Z,97109.36
2023-11-13T15:07:09.724Z,97105.58
2023-11-13T15:09:38.520Z,97107.30
2023-11-13T15:12:09.583Z,97103.85
2023-11-13T15:14:42.748Z,97105.64
2023-11-13T15:17:14.211Z,97103.22
2023-11-13T15:19:44.155Z,97102.25
2023-11-13T15:22:13.347Z,97102.30
2023-11-13T15:24:42.456Z,97102.98
2023-11-13T15:27:13.547Z,97108.15
2023-11-13T15:29:43.084Z,97111.46
2023-11-13T15:32:13.160Z,97108.77
2023-11-13T15:34:43.272Z,97104.27
2023-11-13T15:37:12.739Z,97108.19
2023-11-13T15:39:42.188Z,97109.19
2023-11-13T15:42:14.061Z,97101.46
2023-11-13T15:44:43.250Z,97090.46
2023-11-13T15:47:12.416Z,97089.05
2023-11-13T15:49:42.273Z,97093.45
2023-11-13T15:52:15.224Z,97104.34
2023-11-13T15:54:44.444Z,97103.03
2023-11-13T15:57:15.575Z,97102.20
2023-11-13T15:59:44.983Z,97103.98
2023-11-13T16:02:14.303Z,97108.86
2023-11-13T16:04:43.990Z,97117.39
2023-11-13T16:07:12.905Z,97121.30
2023-11-13T16:09:43.214Z,97115.73
2023-11-13T16:12:15.791Z,97103.49
2023-11-13T16:14:45.706Z,97100.94
2023-11-13T16:17:16.613Z,97106.05
2023-11-13T16:19:46.509Z,97104.55
2023-11-13T16:22:15.566Z,97107.34
2023-11-13T16:24:44.656Z,97101.29
2023-11-13T16:27:14.506Z,97095.14
2023-11-13T16:29:43.364Z,97092.57
2023-11-13T16:32:12.788Z,97094.73
2023-11-13T16:34:42.374Z,97092.98
2023-11-13T16:37:11.185Z,97092.07
2023-11-13T16:39:40.044Z,97092.84
2023-11-13T16:42:08.948Z,97093.78
2023-11-13T16:44:38.850Z,97095.80
2023-11-13T16:47:07.900Z,97097.16
2023-11-13T16:49:36.846Z,97095.05
2023-11-13T16:52:06.227Z,97086.69
2023-11-13T16:54:34.817Z,97084.77
2023-11-13T16:57:03.905Z,97082.64
2023-11-13T16:59:32.590Z,97083.77
2023-11-13T17:02:01.165Z,97077.41
2023-11-13T17:04:30.610Z,97072.66
2023-11-13T17:06:59.650Z,97079.23
2023-11-13T17:09:28.656Z,97088.17
2023-11-13T17:11:57.666Z,97094.44
2023-11-13T17:14:26.846Z,97096.05
2023-11-13T17:16:56.002Z,97102.21
2023-11-13T17:19:27.622Z,97100.54
2023-11-13T17:21:56.698Z,97094.55
2023-11-13T17:24:25.481Z,97093.15
2023-11-13T17:26:55.297Z,97087.45
2023-11-13T17:29:24.307Z,97091.11
2023-11-13T17:31:53.343Z,97090.92
2023-11-13T17:34:22.458Z,97089.27
2023-11-13T17:36:52.699Z,97085.77
2023-11-13T17:39:21.601Z,97086.39
2023-11-13T17:41:51.437Z,97088.27
2023-11-13T17:44:21.271Z,97084.69
2023-11-13T17:46:50.192Z,97092.88
2023-11-13T17:49:19.925Z,97095.23
2023-11-13T17:51:49.424Z,97100.12
2023-11-13T17:54:18.216Z,97099.95
2023-11-13T17:56:50.543Z,97097.83
2023-11-13T17:59:19.473Z,97089.72
2023-11-13T18:01:48.953Z,97099.95
2023-11-13T18:04:20.574Z,97100.70
2023-11-13T18:06:49.829Z,97095.09
2023-11-13T18:09:19.141Z,97091.19
2023-11-13T18:11:47.715Z,97093.11
2023-11-13T18:14:17.833Z,97103.77
2023-11-13T18:16:47.233Z,97100.08
2023-11-13T18:19:16.974Z,97100.64
2023-11-13T18:21:47.992Z,97108.16
2023-11-13T18:24:19.864Z,97110.48
2023-11-13T18:26:49.252Z,97113.81
2023-11-13T18:29:24.861Z,97111.10
2023-11-13T18:31:56.188Z,97113.89
2023-11-13T18:34:26.161Z,97114.23
2023-11-13T18:36:55.042Z,97108.52
2023-11-13T18:39:26.878Z,97107.80
2023-11-13T18:41:56.938Z,97103.22
2023-11-13T18:44:27.245Z,97101.30
2023-11-13T18:46:56.005Z,97103.05
2023-11-13T18:49:24.853Z,97102.55
2023-11-13T18:51:53.816Z,97107.23
2023-11-13T18:54:22.576Z,97106.77
2023-11-13T18:56:51.903Z,97112.33
2023-11-13T18:59:21.399Z,97108.83
2023-11-13T19:01:50.134Z,97105.10
2023-11-13T19:04:23.373Z,97104.73
2023-11-13T19:06:53.611Z,97104.83
2023-11-13T19:09:23.014Z,97107.34
2023-11-13T19:11:52.415Z,97103.69
2023-11-13T19:14:21.107Z,97098.25
2023-11-13T19:16:51.876Z,97098.45
2023-11-13T19:19:20.948Z,97100.24
2023-11-13T19:21:52.161Z,97093.50
2023-11-13T19:24:22.502Z,97093.01
2023-11-13T19:26:51.491Z,97096.41
2023-11-13T19:29:22.927Z,97103.38
2023-11-13T19:31:52.667Z,97106.59
2023-11-13T19:34:22.069Z,97112.71
2023-11-13T19:36:53.199Z,97115.51
2023-11-13T19:39:21.984Z,97111.86
2023-11-13T19:41:50.880Z,97105.55
2023-11-13T19:44:19.964Z,97106.12
2023-11-13T19:46:51.755Z,97113.55
2023-11-13T19:49:23.729Z,97109.16
2023-11-13T19:51:53.103Z,97107.54
2023-11-13T19:54:25.208Z,97105.68
2023-11-13T19:56:54.566Z,97102.95
2023-11-13T19:59:23.550Z,97103.58
2023-11-13T20:01:52.581Z,97109.27
2023-11-13T20:04:22.628Z,97108.09
2023-11-13T20:06:51.549Z,97113.29
2023-11-13T20:09:20.244Z,97122.96
2023-11-13T20:11:49.036Z,97125.42
2023-11-13T20:14:18.330Z,97129.39
2023-11-13T20:16:49.094Z,97118.47
2023-11-13T20:19:18.195Z,97114.09
2023-11-13T20:21:46.943Z,97114.21
2023-11-13T20:24:15.842Z,97120.48
2023-11-13T20:26:46.167Z,97116.36
2023-11-13T20:29:15.323Z,97109.97
2023-11-13T20:31:44.612Z,97103.36
2023-11-13T20:34:16.320Z,97098.02
2023-11-13T20:36:45.315Z,97096.49
2023-11-13T20:39:14.824Z,97095.23
2023-11-13T20:41:43.927Z,97092.70
2023-11-13T20:44:13.338Z,97091.70
2023-11-13T20:46:43.585Z,97091.04
2023-11-13T20:49:13.244Z,97093.11
2023-11-13T20:51:42.038Z,97094.72
2023-11-13T20:54:11.340Z,97095.98
2023-11-13T20:56:41.284Z,97093.69
2023-11-13T20:59:10.718Z,97091.92
2023-11-13T21:01:39.864Z,97089.95
2023-11-13T21:04:10.639Z,97085.74
2023-11-13T21:06:39.985Z,97082.30
2023-11-13T21:09:09.919Z,97083.10
2023-11-13T21:11:39.105Z,97079.46
2023-11-13T21:14:08.608Z,97071.60
2023-11-13T21:16:38.603Z,97073.83
2023-11-13T21:19:08.022Z,97069.36
2023-11-13T21:21:38.028Z,97067.12
2023-11-13T21:24:10.663Z,97063.67
2023-11-13T21:26:40.086Z,97059.52
2023-11-13T21:29:10.140Z,97060.34
2023-11-13T21:31:39.697Z,97060.62
2023-11-13T21:34:08.837Z,97064.95
2023-11-13T21:36:37.943Z,97060.60
2023-11-13T21:39:09.453Z,97061.19
2023-11-13T21:41:38.980Z,97065.08
2023-11-13T21:44:08.827Z,97064.98
2023-11-13T21:46:37.829Z,97062.27
2023-11-13T21:49:07.273Z,97057.92
2023-11-13T21:51:36.722Z,97053.11
2023-11-13T21:54:07.755Z,97049.52
2023-11-13T21:56:36.759Z,97051.65
2023-11-13T21:59:07.692Z,97053.98
2023-11-13T22:01:38.013Z,97054.27
2023-11-13T22:04:07.801Z,97052.26
2023-11-13T22:06:37.653Z,97048.59
2023-11-13T22:09:08.499Z,97044.43
2023-11-13T22:11:38.390Z,97042.18
2023-11-13T22:14:09.043Z,97042.05
2023-11-13T22:16:39.368Z,97042.30
2023-11-13T22:19:08.878Z,97043.72
2023-11-13T22:21:38.145Z,97046.36
2023-11-13T22:24:08.222Z,97051.25
2023-11-13T22:26:38.728Z,97049.66
2023-11-13T22:29:10.338Z,97052.60
2023-11-13T22:31:40.722Z,97048.64
2023-11-13T22:34:11.000Z,97042.61
2023-11-13T22:36:42.744Z,97042.17
2023-11-13T22:39:14.344Z,97035.78
2023-11-13T22:41:44.428Z,97033.21
2023-11-13T22:44:13.513Z,97037.39
2023-11-13T22:46:43.712Z,97034.55
2023-11-13T22:49:13.496Z,97032.50
2023-11-13T22:51:43.955Z,97035.16
2023-11-13T22:54:14.143Z,97035.45
2023-11-13T22:56:44.861Z,97034.88
2023-11-13T22:59:15.166Z,97034.17
2023-11-13T23:01:47.596Z,97037.58
2023-11-13T23:04:19.338Z,97038.31
2023-11-13T23:06:49.805Z,97031.48
2023-11-13T23:09:20.314Z,97035.83
2023-11-13T23:11:49.681Z,97036.19
2023-11-13T23:14:19.198Z,97030.07
2023-11-13T23:16:49.510Z,97027.23
2023-11-13T23:19:19.725Z,97028.92
2023-11-13T23:21:59.388Z,97026.56
2023-11-13T23:24:34.265Z,97028.84
2023-11-13T23:27:03.767Z,97030.77
2023-11-13T23:29:34.969Z,97026.95
2023-11-13T23:32:07.426Z,97024.94
2023-11-13T23:34:36.914Z,97024.46
2023-11-13T23:37:08.263Z,97021.80
2023-11-13T23:39:37.744Z,97012.60
2023-11-13T23:42:09.500Z,97010.36
2023-11-13T23:44:39.163Z,97014.14
2023-11-13T23:47:10.002Z,97012.61
2023-11-13T23:49:40.603Z,97015.92
2023-11-13T23:52:10.887Z,97019.14
2023-11-13T23:54:42.816Z,97015.42
2023-11-13T23:57:12.974Z,97020.45
2023-11-13T23:59:44.421Z,97026.70
